Time;durP1;ratioP1;P1;durP2;ratioP2;P2;SDS_P1;SDS_P2;PMS_P1;PMS_P2;Temp;Humidity;BMP_temperature;BMP_pressure;BME280_temperature;BME280_humidity;BME280_pressure;Samples;Min_cycle;Max_cycle;Signal;HPM_P1;HPM_P2
2023/05/15 00:01:05;;;;;;;13.10;9.50;;;13.70;85.10;;;;;;5073448;28;20091;-66
2023/05/15 00:03:30;;;;;;;13.20;10.45;;;13.70;85.30;;;;;;5081026;28;20108;-69
2023/05/15 00:05:56;;;;;;;12.63;9.13;;;13.60;85.40;;;;;;5073574;28;20048;-69
2023/05/15 00:08:22;;;;;;;10.57;9.20;;;13.60;85.40;;;;;;5073733;28;20425;-70
2023/05/15 00:10:47;;;;;;;11.77;8.93;;;13.50;85.50;;;;;;5072546;28;20032;-67
2023/05/15 00:13:13;;;;;;;11.02;9.60;;;13.50;85.60;;;;;;5071910;28;20074;-68
2023/05/15 00:15:38;;;;;;;10.73;9.15;;;13.50;85.50;;;;;;5072703;28;20029;-68
2023/05/15 00:18:04;;;;;;;11.27;9.25;;;13.50;85.30;;;;;;5071234;28;20375;-69
2023/05/15 00:20:30;;;;;;;12.15;9.82;;;13.50;85.40;;;;;;5071484;28;20105;-69
2023/05/15 00:22:57;;;;;;;13.05;10.13;;;13.40;85.50;;;;;;5081235;28;20029;-69
2023/05/15 00:25:22;;;;;;;12.57;9.90;;;13.40;85.60;;;;;;5072083;28;20029;-68
2023/05/15 00:27:48;;;;;;;12.75;9.00;;;13.30;85.50;;;;;;5071326;28;20029;-69
2023/05/15 00:30:14;;;;;;;12.95;9.45;;;13.30;85.40;;;;;;5073011;28;20032;-68
2023/05/15 00:32:39;;;;;;;10.00;8.07;;;13.30;85.50;;;;;;5073045;28;20033;-68
2023/05/15 00:35:05;;;;;;;10.68;9.02;;;13.30;85.40;;;;;;5074052;28;20516;-68
2023/05/15 00:37:31;;;;;;;10.32;8.50;;;13.30;85.20;;;;;;5079134;28;20475;-67
2023/05/15 00:39:56;;;;;;;11.05;8.48;;;13.30;85.20;;;;;;5072927;28;20021;-67
2023/05/15 00:42:23;;;;;;;11.02;8.88;;;13.30;85.00;;;;;;5072071;28;20645;-69
2023/05/15 00:44:49;;;;;;;12.90;9.05;;;13.30;84.90;;;;;;5072662;28;20364;-68
2023/05/15 00:47:15;;;;;;;11.60;9.00;;;13.20;84.80;;;;;;5072408;28;20461;-69
2023/05/15 00:49:41;;;;;;;13.15;9.48;;;13.20;84.70;;;;;;5072601;28;20032;-68
2023/05/15 00:52:07;;;;;;;11.70;9.27;;;13.20;84.70;;;;;;5071155;28;20037;-67
2023/05/15 00:54:33;;;;;;;12.43;8.68;;;13.10;84.70;;;;;;5079633;28;20096;-68
2023/05/15 00:57:00;;;;;;;11.88;9.18;;;13.10;84.60;;;;;;5071299;28;20077;-69
2023/05/15 00:59:28;;;;;;;9.98;8.95;;;13.10;84.50;;;;;;5071654;28;20048;-67
2023/05/15 01:01:54;;;;;;;10.57;8.85;;;13.10;84.40;;;;;;5075456;28;20364;-66
2023/05/15 01:04:20;;;;;;;10.35;8.60;;;13.00;84.30;;;;;;5072437;28;20032;-67
2023/05/15 01:06:47;;;;;;;12.48;9.90;;;13.00;84.30;;;;;;5071445;28;20033;-68
2023/05/15 01:09:14;;;;;;;11.73;8.98;;;13.00;84.30;;;;;;5082487;28;20013;-67
2023/05/15 01:11:41;;;;;;;11.60;9.80;;;13.00;84.40;;;;;;5089949;28;20454;-68
2023/05/15 01:14:07;;;;;;;11.50;9.88;;;12.90;84.40;;;;;;5072128;28;20055;-67
2023/05/15 01:16:34;;;;;;;13.25;10.40;;;12.80;84.60;;;;;;5071497;28;20418;-68
2023/05/15 01:19:00;;;;;;;12.50;9.35;;;12.80;84.80;;;;;;5078921;28;20077;-70
2023/05/15 01:21:35;;;;;;;14.77;10.60;;;12.70;84.80;;;;;;5092659;28;20675;-70
2023/05/15 01:24:34;;;;;;;11.30;9.30;;;12.70;85.10;;;;;;5081388;28;20020;-72
2023/05/15 01:27:27;;;;;;;11.18;8.02;;;12.70;85.20;;;;;;5067725;28;20406;-68
2023/05/15 01:30:16;;;;;;;11.05;9.10;;;12.70;85.20;;;;;;5072239;28;20060;-71
2023/05/15 01:32:51;;;;;;;10.35;9.25;;;12.70;85.20;;;;;;5071171;28;20028;-68
2023/05/15 01:35:30;;;;;;;11.88;9.80;;;12.60;85.30;;;;;;5082520;28;20028;-70
2023/05/15 01:38:19;;;;;;;15.10;10.88;;;12.60;85.50;;;;;;5080255;28;20074;-68
2023/05/15 01:40:48;;;;;;;13.02;10.32;;;12.60;85.80;;;;;;5072321;28;20505;-71
2023/05/15 01:43:21;;;;;;;12.65;9.77;;;12.60;86.30;;;;;;5070724;28;20340;-70
2023/05/15 01:45:47;;;;;;;12.77;9.45;;;12.60;86.10;;;;;;5071448;28;20036;-69
2023/05/15 01:48:14;;;;;;;12.90;10.23;;;12.60;86.10;;;;;;5071716;28;20025;-69
2023/05/15 01:50:41;;;;;;;15.48;11.15;;;12.60;86.10;;;;;;5076357;28;20494;-69
2023/05/15 01:53:09;;;;;;;14.73;12.05;;;12.60;86.10;;;;;;5077252;28;20089;-70
2023/05/15 01:55:36;;;;;;;13.70;11.23;;;12.60;86.30;;;;;;5068775;28;20027;-69
2023/05/15 01:58:03;;;;;;;12.07;9.85;;;12.60;86.60;;;;;;5071029;28;20551;-68
2023/05/15 02:00:31;;;;;;;12.88;9.57;;;12.60;87.30;;;;;;5069821;28;20040;-67
2023/05/15 02:02:57;;;;;;;12.68;9.60;;;12.60;86.60;;;;;;5069304;28;20019;-68
2023/05/15 02:05:24;;;;;;;13.30;11.23;;;12.60;86.70;;;;;;5071014;28;20403;-67
2023/05/15 02:07:51;;;;;;;13.02;10.57;;;12.60;86.80;;;;;;5071025;28;20437;-69
2023/05/15 02:10:18;;;;;;;13.43;11.25;;;12.60;87.00;;;;;;5071425;28;20106;-68
2023/05/15 02:12:44;;;;;;;13.05;10.25;;;12.50;87.00;;;;;;5083007;28;20088;-68
2023/05/15 02:15:10;;;;;;;13.02;10.88;;;12.50;87.20;;;;;;5070888;28;20023;-68
2023/05/15 02:17:36;;;;;;;15.13;11.30;;;12.50;87.30;;;;;;5061727;28;20102;-70
2023/05/15 02:20:04;;;;;;;13.35;11.15;;;12.50;87.40;;;;;;5070574;28;20063;-68
2023/05/15 02:22:30;;;;;;;13.40;11.73;;;12.40;87.40;;;;;;5071197;28;20027;-71
2023/05/15 02:24:55;;;;;;;11.82;10.35;;;12.40;87.70;;;;;;5076285;28;20028;-67
2023/05/15 02:27:26;;;;;;;13.23;10.43;;;12.40;87.80;;;;;;5081409;28;20487;-68
2023/05/15 02:29:55;;;;;;;12.70;10.57;;;12.50;87.90;;;;;;5071102;28;20033;-68
2023/05/15 02:32:40;;;;;;;12.63;10.82;;;12.40;87.90;;;;;;5070576;28;20025;-67
2023/05/15 02:35:30;;;;;;;13.38;10.60;;;12.40;87.90;;;;;;5024413;28;20056;-68
2023/05/15 02:37:59;;;;;;;14.07;10.55;;;12.40;87.90;;;;;;5077710;28;20096;-68
2023/05/15 02:40:27;;;;;;;12.63;10.30;;;12.40;87.90;;;;;;5071539;28;20403;-71
2023/05/15 02:42:53;;;;;;;12.60;10.57;;;12.40;87.80;;;;;;5069087;28;20016;-68
2023/05/15 02:45:19;;;;;;;12.88;10.68;;;12.50;87.80;;;;;;5082468;28;20050;-67
2023/05/15 02:47:45;;;;;;;11.45;9.90;;;12.40;87.80;;;;;;5066559;28;20031;-67
2023/05/15 02:50:11;;;;;;;14.73;11.48;;;12.50;87.90;;;;;;5083231;28;20028;-69
2023/05/15 02:52:36;;;;;;;12.65;10.60;;;12.40;87.90;;;;;;5068812;28;20129;-67
2023/05/15 02:55:02;;;;;;;12.52;10.85;;;12.40;87.90;;;;;;5066581;28;20394;-69
2023/05/15 02:57:28;;;;;;;12.20;10.13;;;12.40;87.90;;;;;;5070095;28;20062;-67
2023/05/15 02:59:55;;;;;;;14.52;11.48;;;12.50;88.10;;;;;;5076553;28;20028;-67
2023/05/15 03:02:21;;;;;;;13.77;10.63;;;12.50;88.00;;;;;;5070120;28;20717;-67
2023/05/15 03:04:47;;;;;;;13.18;10.45;;;12.50;87.90;;;;;;5069199;28;20029;-68
2023/05/15 03:07:13;;;;;;;15.20;12.02;;;12.40;87.90;;;;;;5070213;28;20694;-67
2023/05/15 03:09:39;;;;;;;14.00;11.40;;;12.50;87.90;;;;;;5070206;28;20037;-67
2023/05/15 03:12:05;;;;;;;13.82;11.38;;;12.40;87.90;;;;;;5069523;28;20032;-68
2023/05/15 03:14:31;;;;;;;14.10;11.13;;;12.40;88.00;;;;;;5082699;28;20099;-69
2023/05/15 03:16:57;;;;;;;13.45;11.30;;;12.30;88.20;;;;;;5070262;28;20143;-67
2023/05/15 03:19:22;;;;;;;14.80;11.68;;;12.30;88.40;;;;;;5068992;28;20395;-67
2023/05/15 03:21:48;;;;;;;13.57;10.98;;;12.20;88.60;;;;;;5069667;28;20111;-68
2023/05/15 03:24:13;;;;;;;14.13;11.60;;;12.20;88.70;;;;;;5070159;28;20649;-67
2023/05/15 03:26:39;;;;;;;13.95;10.93;;;12.20;88.80;;;;;;5076961;28;20088;-66
2023/05/15 03:29:05;;;;;;;14.93;11.75;;;12.10;88.80;;;;;;5079543;28;20434;-67
2023/05/15 03:31:30;;;;;;;13.95;11.10;;;12.10;88.90;;;;;;5069598;28;20024;-68
2023/05/15 03:33:56;;;;;;;19.48;12.23;;;12.10;89.00;;;;;;5069930;28;20421;-69
2023/05/15 03:36:21;;;;;;;18.83;12.13;;;12.10;89.00;;;;;;5068744;28;20033;-68
2023/05/15 03:38:47;;;;;;;21.80;12.18;;;12.10;89.00;;;;;;5069494;28;20027;-67
2023/05/15 03:41:12;;;;;;;15.35;11.02;;;12.10;89.10;;;;;;5068499;28;20036;-70
2023/05/15 03:43:38;;;;;;;17.00;11.50;;;12.10;89.20;;;;;;5069899;28;20031;-67
2023/05/15 03:46:04;;;;;;;34.20;13.65;;;12.10;89.30;;;;;;5073613;28;20058;-68
2023/05/15 03:48:30;;;;;;;20.35;12.98;;;12.10;89.60;;;;;;5101516;28;20032;-68
2023/05/15 03:50:55;;;;;;;18.83;12.60;;;12.20;89.80;;;;;;5073908;28;20089;-68
2023/05/15 03:53:21;;;;;;;17.38;11.32;;;12.20;89.80;;;;;;5069883;28;20066;-71
2023/05/15 03:55:47;;;;;;;42.08;13.73;;;12.20;89.90;;;;;;5067785;28;20017;-70
2023/05/15 03:58:12;;;;;;;18.27;12.75;;;12.20;90.00;;;;;;5076834;28;20029;-67
2023/05/15 04:00:38;;;;;;;25.90;14.70;;;12.20;90.10;;;;;;5068431;28;20031;-68
2023/05/15 04:03:03;;;;;;;19.92;12.75;;;12.30;90.20;;;;;;5069505;28;20029;-69
2023/05/15 04:05:29;;;;;;;20.60;12.45;;;12.30;90.20;;;;;;5068693;28;20086;-67
2023/05/15 04:07:54;;;;;;;24.80;13.40;;;12.30;90.30;;;;;;5069444;28;20040;-68
2023/05/15 04:10:20;;;;;;;19.35;13.68;;;12.30;90.40;;;;;;5069456;28;20036;-68
2023/05/15 04:12:46;;;;;;;21.65;14.05;;;12.40;90.40;;;;;;5069327;28;20023;-69
2023/05/15 04:15:14;;;;;;;23.30;15.30;;;12.40;90.50;;;;;;5077789;28;20013;-69
2023/05/15 04:17:40;;;;;;;21.38;15.23;;;12.40;90.60;;;;;;5067654;28;20419;-70
2023/05/15 04:20:07;;;;;;;17.38;13.05;;;12.40;90.60;;;;;;5069596;28;20048;-69
2023/05/15 04:22:33;;;;;;;15.73;12.70;;;12.50;90.70;;;;;;5068272;28;20024;-68
2023/05/15 04:24:58;;;;;;;19.52;14.43;;;12.60;90.70;;;;;;5066806;28;20036;-69
2023/05/15 04:27:25;;;;;;;19.27;15.27;;;12.60;90.70;;;;;;5085621;28;20031;-70
2023/05/15 04:29:51;;;;;;;16.80;13.75;;;12.60;90.70;;;;;;5073186;28;20032;-68
2023/05/15 04:32:16;;;;;;;18.52;13.85;;;12.60;90.80;;;;;;5072788;28;20406;-70
2023/05/15 04:34:42;;;;;;;18.27;12.77;;;12.70;90.80;;;;;;5072276;28;20440;-67
2023/05/15 04:37:07;;;;;;;17.25;13.68;;;12.70;90.70;;;;;;5072911;28;20398;-68
2023/05/15 04:39:33;;;;;;;19.63;14.90;;;12.70;90.80;;;;;;5072033;28;20059;-70
2023/05/15 04:41:58;;;;;;;23.90;16.15;;;12.80;91.00;;;;;;5072769;28;20028;-70
2023/05/15 04:44:24;;;;;;;18.60;14.52;;;12.80;91.00;;;;;;5075830;28;20356;-67
2023/05/15 04:46:49;;;;;;;19.55;14.85;;;12.80;91.00;;;;;;5077610;28;20021;-67
2023/05/15 04:49:15;;;;;;;20.75;13.85;;;12.80;91.00;;;;;;5071149;28;20048;-67
2023/05/15 04:51:40;;;;;;;21.92;16.98;;;12.90;91.00;;;;;;5071852;28;20028;-70
2023/05/15 04:54:06;;;;;;;20.40;15.15;;;12.90;91.00;;;;;;5072283;28;20122;-68
2023/05/15 04:56:32;;;;;;;23.73;17.17;;;12.90;91.00;;;;;;5072446;28;20016;-68
2023/05/15 04:58:57;;;;;;;20.30;15.20;;;12.90;91.10;;;;;;5072152;28;20082;-67
2023/05/15 05:01:23;;;;;;;21.52;16.10;;;12.90;91.10;;;;;;5072345;28;20078;-68
2023/05/15 05:03:49;;;;;;;20.05;14.77;;;12.90;91.00;;;;;;5070889;28;20025;-67
2023/05/15 05:06:14;;;;;;;20.77;15.73;;;13.00;91.10;;;;;;5072361;28;20119;-68
2023/05/15 05:08:40;;;;;;;22.23;16.30;;;12.90;91.00;;;;;;5071230;28;20078;-70
2023/05/15 05:11:06;;;;;;;22.20;16.55;;;12.90;91.00;;;;;;5072336;28;20059;-66
2023/05/15 05:13:31;;;;;;;19.23;13.43;;;13.00;91.00;;;;;;5071849;28;20023;-70
2023/05/15 05:15:57;;;;;;;17.05;13.20;;;13.00;90.90;;;;;;5072295;28;20526;-74
2023/05/15 05:18:22;;;;;;;19.05;14.40;;;13.10;90.80;;;;;;5085423;28;20099;-68
2023/05/15 05:20:49;;;;;;;16.05;12.65;;;13.10;90.70;;;;;;5072338;28;20025;-67
2023/05/15 05:23:15;;;;;;;21.38;16.65;;;13.10;90.70;;;;;;5071743;28;20009;-66
2023/05/15 05:25:40;;;;;;;19.98;15.25;;;13.10;90.50;;;;;;5070933;28;20082;-67
2023/05/15 05:28:06;;;;;;;17.17;14.13;;;13.10;90.50;;;;;;5079497;28;20518;-68
2023/05/15 05:30:31;;;;;;;18.30;13.65;;;13.10;90.40;;;;;;5068513;28;20032;-68
2023/05/15 05:32:57;;;;;;;17.17;13.70;;;13.10;90.30;;;;;;5068173;28;20032;-68
2023/05/15 05:35:22;;;;;;;19.58;13.98;;;13.10;90.30;;;;;;5070861;28;20487;-66
2023/05/15 05:37:48;;;;;;;22.30;15.43;;;13.60;90.10;;;;;;5074415;28;20028;-70
2023/05/15 05:40:13;;;;;;;19.77;15.10;;;13.80;88.80;;;;;;5072905;28;20029;-67
2023/05/15 05:42:39;;;;;;;17.92;13.80;;;13.90;88.10;;;;;;5071915;28;20028;-67
2023/05/15 05:45:06;;;;;;;18.83;13.48;;;13.90;87.90;;;;;;5071755;28;20028;-66
2023/05/15 05:47:31;;;;;;;16.05;12.10;;;14.10;87.20;;;;;;5073326;28;20508;-66
2023/05/15 05:49:57;;;;;;;18.02;13.07;;;14.40;86.50;;;;;;5073994;28;20021;-67
2023/05/15 05:52:22;;;;;;;17.33;13.88;;;14.40;85.30;;;;;;5071753;28;20100;-70
2023/05/15 05:54:48;;;;;;;17.67;13.13;;;14.40;84.90;;;;;;5076055;28;20025;-68
2023/05/15 05:57:13;;;;;;;14.55;11.70;;;14.40;84.80;;;;;;5083842;28;20035;-66
2023/05/15 05:59:39;;;;;;;14.90;12.02;;;14.20;84.80;;;;;;5084313;28;20478;-67
2023/05/15 06:02:05;;;;;;;16.27;12.93;;;14.10;85.00;;;;;;5085344;28;20514;-69
2023/05/15 06:04:32;;;;;;;16.13;12.60;;;14.10;85.10;;;;;;5082080;28;20030;-67
2023/05/15 06:06:58;;;;;;;13.13;10.70;;;14.10;85.10;;;;;;5072847;28;20025;-67
2023/05/15 06:09:23;;;;;;;15.85;12.40;;;14.40;84.40;;;;;;5072269;28;20030;-68
2023/05/15 06:11:49;;;;;;;14.85;11.95;;;14.60;83.90;;;;;;5074915;28;20516;-70
2023/05/15 06:14:15;;;;;;;14.02;11.18;;;15.50;82.50;;;;;;5081334;28;20048;-66
2023/05/15 06:16:40;;;;;;;12.65;10.07;;;16.70;79.00;;;;;;5067047;28;20016;-68
2023/05/15 06:19:06;;;;;;;12.23;10.25;;;17.90;74.80;;;;;;5071557;28;20035;-68
2023/05/15 06:21:32;;;;;;;14.00;11.23;;;18.90;71.50;;;;;;5078144;28;20021;-67
2023/05/15 06:23:58;;;;;;;14.00;10.45;;;19.60;68.40;;;;;;5071609;28;20043;-71
2023/05/15 06:26:24;;;;;;;11.07;9.50;;;20.00;66.40;;;;;;5072368;28;20510;-67
2023/05/15 06:28:50;;;;;;;12.45;9.23;;;20.20;65.20;;;;;;5070761;28;20027;-70
2023/05/15 06:31:16;;;;;;;13.48;10.38;;;20.10;65.00;;;;;;5068651;28;20028;-67
2023/05/15 06:33:42;;;;;;;12.00;9.60;;;19.80;65.30;;;;;;5071298;28;20042;-66
2023/05/15 06:36:08;;;;;;;13.85;10.40;;;19.50;66.10;;;;;;5069649;28;20135;-69
2023/05/15 06:38:34;;;;;;;11.13;9.02;;;19.20;66.70;;;;;;5075235;28;20099;-69
2023/05/15 06:41:00;;;;;;;11.13;8.88;;;19.20;67.20;;;;;;5080833;28;20012;-69
2023/05/15 06:43:25;;;;;;;11.57;9.23;;;19.10;67.30;;;;;;5085879;28;20035;-67
2023/05/15 06:45:51;;;;;;;11.75;9.13;;;19.00;67.60;;;;;;5073524;28;20119;-69
2023/05/15 06:48:16;;;;;;;11.40;9.48;;;18.90;67.70;;;;;;5076417;28;20060;-67
2023/05/15 06:50:42;;;;;;;11.55;9.50;;;18.80;67.40;;;;;;5079192;28;20099;-67
2023/05/15 06:53:07;;;;;;;10.93;8.98;;;18.60;67.90;;;;;;5063864;28;20025;-68
2023/05/15 06:55:35;;;;;;;11.88;8.65;;;18.50;67.90;;;;;;5067287;28;20032;-70
2023/05/15 06:58:01;;;;;;;10.65;9.50;;;18.30;68.10;;;;;;5068281;28;20024;-72
2023/05/15 07:00:26;;;;;;;10.73;8.52;;;17.90;67.90;;;;;;5065753;28;20033;-68
2023/05/15 07:02:52;;;;;;;11.35;8.98;;;17.70;68.70;;;;;;5069747;28;20031;-68
2023/05/15 07:05:17;;;;;;;9.20;7.90;;;17.40;69.10;;;;;;5069190;28;20592;-67
2023/05/15 07:07:43;;;;;;;10.95;9.00;;;17.30;69.40;;;;;;5068434;28;20024;-70
2023/05/15 07:10:08;;;;;;;10.15;8.60;;;17.20;69.70;;;;;;5069234;28;20494;-67
2023/05/15 07:12:34;;;;;;;10.82;9.55;;;17.10;70.00;;;;;;5069187;28;20482;-69
2023/05/15 07:15:00;;;;;;;11.02;8.40;;;17.20;70.10;;;;;;5068775;28;20024;-68
2023/05/15 07:17:25;;;;;;;10.48;9.05;;;17.50;69.90;;;;;;5080863;28;20031;-70
2023/05/15 07:19:51;;;;;;;11.85;10.05;;;17.80;69.30;;;;;;5080113;28;20031;-71
2023/05/15 07:22:16;;;;;;;11.93;10.10;;;17.90;68.80;;;;;;5068198;28;20513;-70
2023/05/15 07:24:42;;;;;;;12.48;10.40;;;18.00;68.30;;;;;;5067535;28;20017;-68
2023/05/15 07:27:07;;;;;;;10.73;9.27;;;18.10;67.80;;;;;;5070022;28;21331;-67
2023/05/15 07:29:33;;;;;;;10.95;8.15;;;18.20;67.40;;;;;;5074440;28;20049;-68
2023/05/15 07:31:58;;;;;;;10.57;8.07;;;18.30;67.30;;;;;;5066076;28;20057;-68
2023/05/15 07:34:24;;;;;;;9.38;8.38;;;18.40;67.10;;;;;;5079739;28;20039;-69
2023/05/15 07:36:49;;;;;;;14.43;8.63;;;18.30;66.50;;;;;;5068306;28;20024;-67
2023/05/15 07:39:15;;;;;;;8.40;7.03;;;18.30;66.40;;;;;;5076046;28;20526;-70
2023/05/15 07:41:41;;;;;;;10.00;8.80;;;18.50;66.40;;;;;;5069765;28;20025;-68
2023/05/15 07:44:06;;;;;;;10.38;9.20;;;18.50;65.90;;;;;;5070827;28;20518;-69
2023/05/15 07:46:33;;;;;;;9.13;7.97;;;18.50;65.60;;;;;;5085036;28;20493;-68
2023/05/15 07:48:58;;;;;;;9.63;7.25;;;18.80;65.60;;;;;;5078533;28;20081;-69
2023/05/15 07:51:24;;;;;;;9.55;7.75;;;18.90;65.00;;;;;;5064790;28;20020;-69
2023/05/15 07:53:49;;;;;;;10.27;7.15;;;19.00;64.20;;;;;;5075299;28;20392;-67
2023/05/15 07:56:15;;;;;;;9.00;7.40;;;19.10;63.70;;;;;;5068295;28;20364;-68
2023/05/15 07:58:41;;;;;;;8.45;7.20;;;19.20;62.90;;;;;;5067168;28;20029;-69
2023/05/15 08:01:06;;;;;;;8.20;6.90;;;19.30;61.90;;;;;;5079464;28;20443;-70
2023/05/15 08:03:32;;;;;;;8.43;6.28;;;19.20;61.00;;;;;;5080150;28;20097;-67
2023/05/15 08:05:58;;;;;;;6.85;6.00;;;19.30;60.70;;;;;;5080780;28;20048;-69
2023/05/15 08:08:24;;;;;;;7.15;6.45;;;19.40;60.20;;;;;;5073544;28;20028;-68
2023/05/15 08:10:50;;;;;;;8.57;7.28;;;19.30;59.30;;;;;;5081636;28;20505;-68
2023/05/15 08:13:15;;;;;;;7.35;6.55;;;19.40;59.50;;;;;;5076534;28;20024;-69
2023/05/15 08:15:41;;;;;;;8.40;7.50;;;19.40;60.10;;;;;;5072527;28;20414;-70
2023/05/15 08:18:09;;;;;;;10.15;7.95;;;19.60;60.60;;;;;;5075236;28;20024;-72
2023/05/15 08:20:34;;;;;;;9.60;7.60;;;19.70;60.60;;;;;;5085020;28;20020;-67
2023/05/15 08:23:00;;;;;;;9.65;7.97;;;19.90;60.40;;;;;;5086643;28;20031;-68
2023/05/15 08:25:25;;;;;;;9.63;7.97;;;20.00;60.10;;;;;;5077810;28;20028;-71
2023/05/15 08:27:51;;;;;;;8.23;6.85;;;20.10;59.50;;;;;;5074386;28;20028;-68
2023/05/15 08:30:18;;;;;;;8.05;6.43;;;20.10;59.10;;;;;;5089334;28;20028;-70
2023/05/15 08:32:47;;;;;;;8.07;6.85;;;20.10;58.70;;;;;;5079889;28;20096;-71
2023/05/15 08:35:14;;;;;;;7.03;6.07;;;20.00;58.20;;;;;;5073649;28;20027;-67
2023/05/15 08:37:39;;;;;;;7.30;5.40;;;20.00;58.30;;;;;;5074126;28;20012;-67
2023/05/15 08:40:06;;;;;;;8.40;5.88;;;20.10;57.90;;;;;;5076213;28;20027;-67
2023/05/15 08:42:44;;;;;;;6.45;5.53;;;20.10;57.40;;;;;;5080395;28;20078;-69
2023/05/15 08:45:11;;;;;;;8.40;6.13;;;20.20;57.40;;;;;;5071273;28;20033;-68
2023/05/15 08:47:39;;;;;;;7.38;5.90;;;20.20;57.10;;;;;;5074914;28;20394;-69
2023/05/15 08:50:08;;;;;;;7.03;5.95;;;20.30;57.70;;;;;;5075538;28;20028;-69
2023/05/15 08:52:35;;;;;;;10.32;6.20;;;20.30;57.00;;;;;;5079044;28;20028;-71
2023/05/15 08:55:01;;;;;;;7.07;6.38;;;20.30;56.90;;;;;;5085507;28;20024;-69
2023/05/15 08:57:27;;;;;;;7.72;5.70;;;20.40;56.40;;;;;;5088345;28;20017;-70
2023/05/15 08:59:53;;;;;;;10.30;5.35;;;20.50;56.40;;;;;;5080050;28;20062;-70
2023/05/15 09:02:20;;;;;;;6.43;5.40;;;20.40;56.30;;;;;;5067432;28;20025;-68
2023/05/15 09:04:45;;;;;;;7.35;5.97;;;20.50;56.40;;;;;;5082433;28;20024;-70
2023/05/15 09:07:11;;;;;;;8.07;7.00;;;20.60;55.90;;;;;;5076676;28;20540;-67
2023/05/15 09:09:38;;;;;;;7.50;5.25;;;20.60;54.90;;;;;;5080635;28;20025;-69
2023/05/15 09:12:07;;;;;;;6.70;5.47;;;20.60;55.20;;;;;;5079428;28;20133;-70
2023/05/15 09:14:32;;;;;;;6.78;5.78;;;20.60;56.00;;;;;;5079928;28;20020;-68
2023/05/15 09:16:58;;;;;;;6.53;5.70;;;20.60;55.40;;;;;;5088457;28;20028;-72
2023/05/15 09:19:23;;;;;;;9.27;5.10;;;20.60;55.20;;;;;;5074739;28;20095;-70
2023/05/15 09:21:49;;;;;;;5.45;4.70;;;20.70;55.20;;;;;;5079199;28;20048;-69
2023/05/15 09:24:23;;;;;;;5.80;4.57;;;20.80;55.50;;;;;;5085127;28;20080;-67
2023/05/15 09:27:03;;;;;;;7.13;5.03;;;21.00;55.30;;;;;;5077009;28;20434;-66
2023/05/15 09:29:30;;;;;;;6.53;5.78;;;21.10;54.40;;;;;;5070469;28;20020;-70
2023/05/15 09:31:56;;;;;;;7.78;5.15;;;21.10;54.40;;;;;;5064111;28;20033;-68
2023/05/15 09:34:32;;;;;;;8.00;5.88;;;21.20;54.30;;;;;;5070419;28;20370;-71
2023/05/15 09:37:00;;;;;;;8.15;5.50;;;21.20;53.90;;;;;;5074567;28;20020;-68
2023/05/15 09:39:25;;;;;;;6.25;5.65;;;21.30;54.10;;;;;;5066708;28;20024;-68
2023/05/15 09:41:51;;;;;;;7.47;6.57;;;21.40;53.90;;;;;;5080408;28;20641;-69
2023/05/15 09:44:27;;;;;;;7.00;5.80;;;21.70;53.60;;;;;;5074118;28;20016;-70
2023/05/15 09:46:52;;;;;;;7.13;5.95;;;21.70;53.20;;;;;;5069801;28;20074;-68
2023/05/15 09:49:18;;;;;;;9.05;7.65;;;21.60;53.50;;;;;;5071932;28;20038;-69
2023/05/15 09:51:45;;;;;;;9.45;7.55;;;21.50;54.00;;;;;;5076206;28;20024;-69
2023/05/15 09:54:17;;;;;;;8.65;7.75;;;21.40;54.50;;;;;;5081695;28;20031;-68
2023/05/15 09:56:47;;;;;;;9.18;8.18;;;21.50;54.70;;;;;;5071832;28;20495;-69
2023/05/15 09:59:14;;;;;;;6.95;6.25;;;21.60;54.80;;;;;;5084869;28;20429;-68
2023/05/15 10:01:44;;;;;;;8.90;7.65;;;21.80;54.80;;;;;;5075477;28;20024;-69
2023/05/15 10:04:11;;;;;;;8.25;6.93;;;21.90;54.40;;;;;;5069167;28;20037;-69
2023/05/15 10:06:42;;;;;;;8.27;7.03;;;21.90;54.10;;;;;;5080766;28;20051;-67
2023/05/15 10:09:09;;;;;;;9.13;7.60;;;22.00;53.90;;;;;;5080569;28;20032;-68
2023/05/15 10:11:39;;;;;;;8.88;7.20;;;21.80;53.50;;;;;;5078257;28;20024;-71
2023/05/15 10:14:06;;;;;;;8.60;7.47;;;21.80;53.60;;;;;;5079318;28;20040;-70
2023/05/15 10:16:34;;;;;;;9.50;8.52;;;21.60;53.10;;;;;;5081693;28;20104;-68
2023/05/15 10:19:05;;;;;;;8.95;7.97;;;21.40;53.00;;;;;;5071921;28;20032;-68
2023/05/15 10:21:36;;;;;;;8.63;7.27;;;21.30;53.30;;;;;;5076861;28;20020;-67
2023/05/15 10:24:03;;;;;;;9.40;8.20;;;21.30;53.20;;;;;;5068033;28;20021;-71
2023/05/15 10:26:38;;;;;;;9.20;7.47;;;21.20;53.00;;;;;;5072551;28;20510;-68
2023/05/15 10:29:17;;;;;;;8.45;7.10;;;21.10;53.00;;;;;;5080811;28;20028;-69
2023/05/15 10:31:42;;;;;;;8.52;7.68;;;21.20;53.00;;;;;;5073943;28;20115;-67
2023/05/15 10:34:09;;;;;;;7.65;6.32;;;21.30;52.90;;;;;;5080472;28;20438;-69
2023/05/15 10:36:36;;;;;;;6.90;6.10;;;21.50;52.50;;;;;;5078126;28;20703;-67
2023/05/15 10:39:06;;;;;;;6.90;6.10;;;21.50;50.90;;;;;;5081115;28;20020;-67
2023/05/15 10:41:39;;;;;;;7.32;6.30;;;21.50;50.40;;;;;;5071042;28;20024;-68
2023/05/15 10:44:05;;;;;;;8.15;7.35;;;21.50;50.50;;;;;;5060167;28;20025;-68
2023/05/15 10:46:34;;;;;;;8.55;7.03;;;21.40;51.20;;;;;;5064764;28;20048;-67
2023/05/15 10:49:00;;;;;;;10.27;7.40;;;21.40;51.60;;;;;;5060562;28;20036;-67
2023/05/15 10:51:32;;;;;;;7.38;6.30;;;21.40;51.80;;;;;;5064770;28;20035;-67
2023/05/15 10:53:59;;;;;;;7.45;6.45;;;21.30;51.90;;;;;;5062577;28;20077;-67
2023/05/15 10:56:32;;;;;;;8.05;5.55;;;21.30;51.80;;;;;;5062278;28;20044;-68
2023/05/15 10:59:06;;;;;;;7.90;6.10;;;21.30;51.80;;;;;;5065152;28;20085;-72
2023/05/15 11:01:39;;;;;;;7.25;5.80;;;21.30;51.80;;;;;;5066736;28;20043;-69
2023/05/15 11:04:05;;;;;;;6.47;5.60;;;21.30;51.60;;;;;;5070963;28;20016;-69
2023/05/15 11:06:31;;;;;;;7.53;6.55;;;21.20;51.60;;;;;;5068209;28;20077;-71
2023/05/15 11:09:25;;;;;;;10.27;8.07;;;21.20;51.50;;;;;;5068294;28;20562;-70
2023/05/15 11:11:51;;;;;;;8.65;7.13;;;21.10;51.40;;;;;;5068747;28;20078;-69
2023/05/15 11:14:17;;;;;;;6.93;5.47;;;21.00;51.60;;;;;;5069339;28;20426;-69
2023/05/15 11:16:51;;;;;;;8.10;6.43;;;21.00;52.00;;;;;;5066200;28;20969;-68
2023/05/15 11:19:38;;;;;;;8.25;6.32;;;21.00;52.10;;;;;;5060903;28;20024;-71
2023/05/15 11:22:21;;;;;;;8.65;7.15;;;21.00;52.50;;;;;;5067655;28;20387;-71
2023/05/15 11:25:00;;;;;;;6.97;6.03;;;20.80;52.80;;;;;;5064072;28;20552;-71
2023/05/15 11:27:39;;;;;;;7.40;6.38;;;20.90;53.20;;;;;;5063667;28;20486;-71
2023/05/15 11:30:09;;;;;;;8.55;7.25;;;20.90;53.40;;;;;;5079946;28;20483;-71
2023/05/15 11:32:44;;;;;;;7.50;6.70;;;20.80;53.70;;;;;;5073154;28;20470;-71
2023/05/15 11:35:11;;;;;;;8.23;6.93;;;20.90;53.90;;;;;;5061446;28;20025;-69
2023/05/15 11:37:48;;;;;;;8.75;7.18;;;20.90;54.00;;;;;;5086504;28;20127;-70
2023/05/15 11:40:18;;;;;;;9.23;8.10;;;20.90;54.30;;;;;;5074952;28;20021;-69
2023/05/15 11:42:58;;;;;;;9.90;8.23;;;20.90;54.50;;;;;;5075339;28;20526;-70
2023/05/15 11:45:24;;;;;;;10.35;8.65;;;20.80;54.30;;;;;;5075026;28;20024;-69
2023/05/15 11:47:50;;;;;;;8.73;7.75;;;20.70;54.60;;;;;;5075587;28;20382;-72
2023/05/15 11:50:16;;;;;;;8.90;7.60;;;20.70;54.90;;;;;;5077727;28;20024;-72
2023/05/15 11:52:42;;;;;;;10.02;8.95;;;20.80;55.10;;;;;;5075863;28;20410;-69
2023/05/15 11:55:08;;;;;;;9.93;8.93;;;20.80;55.20;;;;;;5071690;28;20161;-68
2023/05/15 11:57:37;;;;;;;11.07;9.30;;;20.80;55.30;;;;;;5081852;28;20016;-70
2023/05/15 12:00:03;;;;;;;13.52;10.90;;;20.70;55.50;;;;;;5078609;28;20044;-68
2023/05/15 12:02:28;;;;;;;12.80;11.00;;;20.70;55.80;;;;;;5075211;28;20055;-69
2023/05/15 12:04:54;;;;;;;15.57;12.45;;;20.60;55.70;;;;;;5077408;28;20067;-70
2023/05/15 12:07:20;;;;;;;15.20;13.30;;;20.50;56.50;;;;;;5076458;28;20062;-69
2023/05/15 12:09:51;;;;;;;14.23;12.40;;;20.40;57.00;;;;;;5075448;28;20491;-68
2023/05/15 12:12:16;;;;;;;15.05;11.98;;;20.30;57.50;;;;;;5069722;28;20044;-72
2023/05/15 12:14:42;;;;;;;16.52;12.98;;;20.30;57.80;;;;;;5074263;28;20020;-72
2023/05/15 12:17:08;;;;;;;17.92;15.48;;;20.20;57.90;;;;;;5075096;28;20090;-69
2023/05/15 12:19:34;;;;;;;20.30;16.90;;;20.20;58.10;;;;;;5074777;28;20050;-69
2023/05/15 12:22:00;;;;;;;17.88;15.18;;;20.00;58.30;;;;;;5076298;28;20050;-69
2023/05/15 12:24:26;;;;;;;18.67;16.25;;;20.00;58.70;;;;;;5078152;28;20069;-69
2023/05/15 12:26:51;;;;;;;21.30;17.25;;;19.90;59.10;;;;;;5072566;28;20021;-69
2023/05/15 12:29:17;;;;;;;20.73;17.00;;;19.70;59.30;;;;;;5074948;28;20391;-71
2023/05/15 12:31:43;;;;;;;19.30;16.52;;;19.60;59.50;;;;;;5074133;28;20032;-71
2023/05/15 12:34:10;;;;;;;20.50;16.92;;;19.50;59.90;;;;;;5071706;28;20116;-68
2023/05/15 12:36:35;;;;;;;18.50;14.48;;;19.50;60.30;;;;;;5074501;28;20009;-71